Amarant — SPG3207 — position and weather

sailwx.info

Track history (hours):
 
Tides and Currents Weather Stations Pressure Air Temp Water Temp Dewpoint Dewpoint Depression Visibility Wind Speed Wind Dir Waves Ship Positions

Amarant

Last reported at 2015-Nov-17 10:06 UTC. Time now 2016-Apr-29 19:45 UTC.
Position N 35°59' W 005°19'.
Warning: this ship's position is months out of date.

Length 14 m.

Type: Sailing vessel. MMSI: 261015190.

Date/timePositionNaut miles runAvg speedWind from/ knotsBaromVisibWave heightAir tempDewpointWater temp
2015-Nov-17 10:06N 35°59' W 005°19'3 5.1
2015-Nov-17 09:33N 35°57' W 005°18'2 0.1
2015-Nov-16 05:34N 35°54' W 005°19'133 4.9
2015-Nov-15 02:23N 36°51' W 007°49'5 2.8
2015-Nov-15 00:33N 36°51' W 007°56'4 4.4
2015-Nov-14 23:33N 36°50' W 008°01'5 4.9
2015-Nov-14 22:33N 36°51' W 008°07'4 3.5
2015-Nov-14 21:33N 36°53' W 008°11'4 4.0
2015-Nov-14 20:31N 36°54' W 008°16'4 4.1
2015-Nov-14 19:30N 36°57' W 008°20'4 4.1
2015-Nov-14 18:33N 37°00' W 008°22'4 3.9
2015-Nov-14 17:33N 37°04' W 008°25'6 5.5
2015-Nov-14 16:33N 37°05' W 008°32'5 5.3
2015-Nov-14 15:33N 37°05' W 008°38'2 0.1
2015-Nov-13 18:18N 37°06' W 008°40'2 3.3
2015-Nov-13 17:33N 37°04' W 008°42'5 5.0
2015-Nov-13 16:33N 37°02' W 008°47'5 4.5
2015-Nov-13 15:33N 37°01' W 008°53'5 4.9
2015-Nov-13 14:33N 37°00' W 008°59'5 4.9
2015-Nov-13 13:33N 37°05' W 009°01'5 5.0
2015-Nov-13 12:33N 37°09' W 009°04'5 5.0
2015-Nov-13 11:30N 37°14' W 009°07'4 4.0
2015-Nov-13 10:33N 37°17' W 009°08'5 4.7
2015-Nov-13 09:33N 37°22' W 009°10'5 4.8
2015-Nov-13 08:33N 37°27' W 009°11'6 5.1
2015-Nov-13 07:24N 37°32' W 009°14'4 4.5
2015-Nov-13 06:30N 37°36' W 009°15'4 4.0
2015-Nov-13 05:30N 37°40' W 009°17'4 3.7
2015-Nov-13 04:33N 37°43' W 009°19'4 4.5
2015-Nov-13 03:33N 37°48' W 009°20'4 3.7
2015-Nov-13 02:32N 37°51' W 009°21'4 3.6
2015-Nov-13 01:30N 37°55' W 009°23'3 2.9
2015-Nov-13 00:24N 37°57' W 009°25'3 3.0
2015-Nov-12 23:30N 37°60' W 009°27'5 4.9
2015-Nov-12 22:33N 38°04' W 009°29'5 5.0
2015-Nov-12 21:33N 38°09' W 009°28'5 5.4
2015-Nov-12 20:33N 38°14' W 009°26'5 5.3
2015-Nov-12 19:33N 38°19' W 009°22'5 5.0
2015-Nov-12 18:33N 38°23' W 009°20'5 4.8
2015-Nov-12 17:33N 38°28' W 009°20'7 7.0
2015-Nov-12 16:33N 38°35' W 009°21'7 6.3
2015-Nov-12 15:30N 38°41' W 009°17'4 3.9
2015-Nov-12 14:32N 38°42' W 009°12'2 1.7
2015-Nov-12 13:33N 38°42' W 009°10'  
2015-Nov-10 08:28N 38°42' W 009°10'2 1.9
2015-Nov-10 07:33N 38°42' W 009°12'4 4.4
2015-Nov-10 06:33N 38°41' W 009°18'4 4.3
2015-Nov-10 05:33N 38°41' W 009°23'4 4.2
2015-Nov-10 04:33N 38°41' W 009°29'7 6.4
2015-Nov-10 03:31N 38°47' W 009°33'4 4.2
2015-Nov-10 02:33N 38°51' W 009°34'2 1.7
2015-Nov-10 01:33N 38°53' W 009°34'2 2.4
2015-Nov-10 00:32N 38°55' W 009°34'2 2.4
2015-Nov-09 23:32N 38°57' W 009°33'3 2.8
2015-Nov-09 22:33N 39°00' W 009°33'3 3.0
2015-Nov-09 21:33N 39°03' W 009°33'5 4.7
2015-Nov-09 20:33N 39°08' W 009°31'5 4.9
2015-Nov-09 19:33N 39°13' W 009°31'5 4.6
2015-Nov-09 18:30N 39°17' W 009°31'4 3.6
2015-Nov-09 17:30N 39°21' W 009°30'3 2.9
2015-Nov-09 16:30N 39°24' W 009°30'2 2.5
2015-Nov-09 15:33N 39°26' W 009°28'3 2.7
2015-Nov-09 14:33N 39°28' W 009°26'2 2.3
2015-Nov-09 13:33N 39°30' W 009°25'6 5.5
2015-Nov-09 12:33N 39°35' W 009°22'7 6.8
2015-Nov-09 11:33N 39°42' W 009°20'6 5.8
2015-Nov-09 10:33N 39°48' W 009°18'3 2.8
2015-Nov-09 09:24N 39°51' W 009°17'3 3.0
2015-Nov-09 08:33N 39°53' W 009°16'4 3.6
2015-Nov-09 07:24N 39°57' W 009°16'2 2.2
2015-Nov-09 06:25N 39°59' W 009°16'2 2.0
2015-Nov-09 05:30N 40°01' W 009°15'6 6.3
2015-Nov-09 04:33N 40°07' W 009°13'7 6.5
2015-Nov-09 03:30N 40°14' W 009°11'6 6.2
2015-Nov-09 02:30N 40°20' W 009°08'6 6.4
2015-Nov-09 01:33N 40°25' W 009°06'6 6.0
2015-Nov-09 00:33N 40°31' W 009°04'7 6.3
2015-Nov-08 23:27N 40°38' W 009°01'6 6.3
2015-Nov-08 22:33N 40°43' W 008°59'6 6.3
2015-Nov-08 21:33N 40°49' W 008°55'6 6.3
2015-Nov-08 20:33N 40°54' W 008°52'6 6.3
2015-Nov-08 19:34N 41°00' W 008°48'7 6.5
2015-Nov-08 18:33N 41°06' W 008°44'4 0.1
2015-Nov-07 16:11N 41°09' W 008°41'4 6.8
2015-Nov-07 15:32N 41°12' W 008°45'6 5.8
2015-Nov-07 14:33N 41°17' W 008°46'8 6.8
2015-Nov-07 13:23N 41°25' W 008°49'5 5.9
2015-Nov-07 12:29N 41°30' W 008°52'7 6.0
2015-Nov-07 11:23N 41°36' W 008°52'5 6.0
2015-Nov-07 10:32N 41°41' W 008°54'  
Track history (hours):
 
Tides and Currents Weather Stations Pressure Air Temp Water Temp Dewpoint Dewpoint Depression Visibility Wind Speed Wind Dir Waves Ship Positions

Amarant

Last reported at 2015-Nov-17 10:06 UTC. Time now 2016-Apr-29 19:45 UTC.
Position N 35°59' W 005°19'.
Warning: this ship's position is months out of date.

Length 14 m.

Type: Sailing vessel. MMSI: 261015190.

Date/timePositionNaut miles runAvg speedWind from/ knotsBaromVisibWave heightAir tempDewpointWater temp
2015-Nov-17 10:06N 35°59' W 005°19'3 5.1
2015-Nov-17 09:33N 35°57' W 005°18'2 0.1
2015-Nov-16 05:34N 35°54' W 005°19'133 4.9
2015-Nov-15 02:23N 36°51' W 007°49'5 2.8
2015-Nov-15 00:33N 36°51' W 007°56'4 4.4
2015-Nov-14 23:33N 36°50' W 008°01'5 4.9
2015-Nov-14 22:33N 36°51' W 008°07'4 3.5
2015-Nov-14 21:33N 36°53' W 008°11'4 4.0
2015-Nov-14 20:31N 36°54' W 008°16'4 4.1
2015-Nov-14 19:30N 36°57' W 008°20'4 4.1
2015-Nov-14 18:33N 37°00' W 008°22'4 3.9
2015-Nov-14 17:33N 37°04' W 008°25'6 5.5
2015-Nov-14 16:33N 37°05' W 008°32'5 5.3
2015-Nov-14 15:33N 37°05' W 008°38'2 0.1
2015-Nov-13 18:18N 37°06' W 008°40'2 3.3
2015-Nov-13 17:33N 37°04' W 008°42'5 5.0
2015-Nov-13 16:33N 37°02' W 008°47'5 4.5
2015-Nov-13 15:33N 37°01' W 008°53'5 4.9
2015-Nov-13 14:33N 37°00' W 008°59'5 4.9
2015-Nov-13 13:33N 37°05' W 009°01'5 5.0
2015-Nov-13 12:33N 37°09' W 009°04'5 5.0
2015-Nov-13 11:30N 37°14' W 009°07'4 4.0
2015-Nov-13 10:33N 37°17' W 009°08'5 4.7
2015-Nov-13 09:33N 37°22' W 009°10'5 4.8
2015-Nov-13 08:33N 37°27' W 009°11'6 5.1
2015-Nov-13 07:24N 37°32' W 009°14'4 4.5
2015-Nov-13 06:30N 37°36' W 009°15'4 4.0
2015-Nov-13 05:30N 37°40' W 009°17'4 3.7
2015-Nov-13 04:33N 37°43' W 009°19'4 4.5
2015-Nov-13 03:33N 37°48' W 009°20'4 3.7
2015-Nov-13 02:32N 37°51' W 009°21'4 3.6
2015-Nov-13 01:30N 37°55' W 009°23'3 2.9
2015-Nov-13 00:24N 37°57' W 009°25'3 3.0
2015-Nov-12 23:30N 37°60' W 009°27'5 4.9
2015-Nov-12 22:33N 38°04' W 009°29'5 5.0
2015-Nov-12 21:33N 38°09' W 009°28'5 5.4
2015-Nov-12 20:33N 38°14' W 009°26'5 5.3
2015-Nov-12 19:33N 38°19' W 009°22'5 5.0
2015-Nov-12 18:33N 38°23' W 009°20'5 4.8
2015-Nov-12 17:33N 38°28' W 009°20'7 7.0
2015-Nov-12 16:33N 38°35' W 009°21'7 6.3
2015-Nov-12 15:30N 38°41' W 009°17'4 3.9
2015-Nov-12 14:32N 38°42' W 009°12'2 1.7
2015-Nov-12 13:33N 38°42' W 009°10'  
2015-Nov-10 08:28N 38°42' W 009°10'2 1.9
2015-Nov-10 07:33N 38°42' W 009°12'4 4.4
2015-Nov-10 06:33N 38°41' W 009°18'4 4.3
2015-Nov-10 05:33N 38°41' W 009°23'4 4.2
2015-Nov-10 04:33N 38°41' W 009°29'7 6.4
2015-Nov-10 03:31N 38°47' W 009°33'4 4.2
2015-Nov-10 02:33N 38°51' W 009°34'2 1.7
2015-Nov-10 01:33N 38°53' W 009°34'2 2.4
2015-Nov-10 00:32N 38°55' W 009°34'2 2.4
2015-Nov-09 23:32N 38°57' W 009°33'3 2.8
2015-Nov-09 22:33N 39°00' W 009°33'3 3.0
2015-Nov-09 21:33N 39°03' W 009°33'5 4.7
2015-Nov-09 20:33N 39°08' W 009°31'5 4.9
2015-Nov-09 19:33N 39°13' W 009°31'5 4.6
2015-Nov-09 18:30N 39°17' W 009°31'4 3.6
2015-Nov-09 17:30N 39°21' W 009°30'3 2.9
2015-Nov-09 16:30N 39°24' W 009°30'2 2.5
2015-Nov-09 15:33N 39°26' W 009°28'3 2.7
2015-Nov-09 14:33N 39°28' W 009°26'2 2.3
2015-Nov-09 13:33N 39°30' W 009°25'6 5.5
2015-Nov-09 12:33N 39°35' W 009°22'7 6.8
2015-Nov-09 11:33N 39°42' W 009°20'6 5.8
2015-Nov-09 10:33N 39°48' W 009°18'3 2.8
2015-Nov-09 09:24N 39°51' W 009°17'3 3.0
2015-Nov-09 08:33N 39°53' W 009°16'4 3.6
2015-Nov-09 07:24N 39°57' W 009°16'2 2.2
2015-Nov-09 06:25N 39°59' W 009°16'2 2.0
2015-Nov-09 05:30N 40°01' W 009°15'6 6.3
2015-Nov-09 04:33N 40°07' W 009°13'7 6.5
2015-Nov-09 03:30N 40°14' W 009°11'6 6.2
2015-Nov-09 02:30N 40°20' W 009°08'6 6.4
2015-Nov-09 01:33N 40°25' W 009°06'6 6.0
2015-Nov-09 00:33N 40°31' W 009°04'7 6.3
2015-Nov-08 23:27N 40°38' W 009°01'6 6.3
2015-Nov-08 22:33N 40°43' W 008°59'6 6.3
2015-Nov-08 21:33N 40°49' W 008°55'6 6.3
2015-Nov-08 20:33N 40°54' W 008°52'6 6.3
2015-Nov-08 19:34N 41°00' W 008°48'7 6.5
2015-Nov-08 18:33N 41°06' W 008°44'4 0.1
2015-Nov-07 16:11N 41°09' W 008°41'4 6.8
2015-Nov-07 15:32N 41°12' W 008°45'6 5.8
2015-Nov-07 14:33N 41°17' W 008°46'8 6.8
2015-Nov-07 13:23N 41°25' W 008°49'5 5.9
2015-Nov-07 12:29N 41°30' W 008°52'7 6.0
2015-Nov-07 11:23N 41°36' W 008°52'5 6.0
2015-Nov-07 10:32N 41°41' W 008°54'  

Dump ship's entire track history